Aérodrome :







RETROUVEZ-NOUS SUR...

 
LOGIN :

S'inscrire | Disclaimer

   EN    FR    IT 

 









Légende :    VFR   VFR Marginal   IFR   IFR Intensif   IFR Très Intensif
Visi : 
Plafond : 
>= 8 km
>= 3000ft
5 à 8 km
1000 à 3000 ft
1500m à 5 km
500 à 1000 ft
800 à 1500m
200 à 500 ft
< 800m
< 200 ft
Symboles :   Orages  Brouillard  Fortes neiges  Fortes précipitations  Vent > 20 kt






- Altitude de l'aérodrome : 29 ft
- Code IATA : PSE


TJPS - Mercedita

METAR N/A
TAF TJPS
Valide du 27 à 06h jusqu'au 28 à 06h UTC


270520Z 2706/2806 VRB04KT P6SM SCT035 BKN050
FM270700 VRB03KT P6SM FEW030 FEW050
FM271430 17010KT P6SM FEW030 SCT060
FM272100 12009KT P6SM FEW030 SCT060
FM280500 06010KT P6SM VCSH FEW025 SCT050
FIR TJZS / Amérique du Nord



MET'MAP, la Météo Aéronautique d'un coup d'oeil ! - Copyright ORBIFLY Décembre 2007 - Disclaimer

ORBIFLY MET'MAP TEAM :

Programmation & Développement : Alexandra Zaïnal
Sur une idée originale de : Baudouin d'Aumeries
Assistance à la programmation : Marc-Olivier Méhu
Soutien technique & logistique : Manuel Goepfert

Contact : metmap@orbifly.com




SOURCES & CREDITS :

   NOAA